createdAt,value
2023-01-17T00:00:01.036Z,45706.00
2023-01-17T00:02:30.862Z,45710.00
2023-01-17T00:05:17.087Z,45714.00
2023-01-17T00:08:01.859Z,45704.00
2023-01-17T00:10:28.554Z,45747.97
2023-01-17T00:13:03.285Z,45729.97
2023-01-17T00:15:31.192Z,45700.00
2023-01-17T00:17:58.251Z,45694.00
2023-01-17T00:20:46.504Z,45702.00
2023-01-17T00:23:36.013Z,45710.00
2023-01-17T00:26:04.208Z,45710.00
2023-01-17T00:28:38.937Z,45702.00
2023-01-17T00:31:07.905Z,45737.97
2023-01-17T00:33:34.731Z,45706.00
2023-01-17T00:36:02.805Z,45725.97
2023-01-17T00:38:32.029Z,45729.97
2023-01-17T00:41:03.519Z,45733.97
2023-01-17T00:43:49.357Z,45710.00
2023-01-17T00:46:35.265Z,45714.00
2023-01-17T00:49:20.270Z,45722.00
2023-01-17T00:52:05.071Z,45733.97
2023-01-17T00:54:49.995Z,45724.00
2023-01-17T00:57:34.681Z,45737.97
2023-01-17T01:00:19.824Z,45714.00
2023-01-17T01:03:04.617Z,45743.97
2023-01-17T01:05:50.139Z,45727.97
2023-01-17T01:08:44.174Z,45710.00
2023-01-17T01:11:32.698Z,45745.97
2023-01-17T01:14:19.301Z,45729.97
2023-01-17T01:17:05.174Z,45722.00
2023-01-17T01:19:50.698Z,45737.97
2023-01-17T01:22:36.253Z,45725.97
2023-01-17T01:25:22.170Z,45706.00
2023-01-17T01:28:07.112Z,45729.97
2023-01-17T01:30:51.885Z,45729.97
2023-01-17T01:33:21.092Z,45733.97
2023-01-17T01:35:52.166Z,45727.97
2023-01-17T01:38:20.693Z,45737.97
2023-01-17T01:40:49.718Z,45745.97
2023-01-17T01:43:19.928Z,45737.97
2023-01-17T01:45:57.823Z,45729.97
2023-01-17T01:48:35.854Z,45751.97
2023-01-17T01:51:07.491Z,45729.97
2023-01-17T01:53:37.166Z,45745.97
2023-01-17T01:56:08.996Z,45733.97
2023-01-17T01:58:37.798Z,45735.97
2023-01-17T02:01:06.865Z,45725.97
2023-01-17T02:03:34.694Z,45733.97
2023-01-17T02:06:16.174Z,45745.97
2023-01-17T02:08:42.710Z,45741.97
2023-01-17T02:11:09.598Z,45741.97
2023-01-17T02:13:36.484Z,45741.97
2023-01-17T02:16:17.958Z,45733.97
2023-01-17T02:19:13.906Z,45741.97
2023-01-17T02:21:58.113Z,45775.94
2023-01-17T02:24:43.244Z,45743.97
2023-01-17T02:27:12.768Z,45745.97
2023-01-17T02:30:28.855Z,45771.94
2023-01-17T02:33:23.485Z,45749.97
2023-01-17T02:36:23.642Z,45757.97
2023-01-17T02:38:58.937Z,45751.97
2023-01-17T02:41:32.518Z,45753.97
2023-01-17T02:43:58.920Z,45765.97
2023-01-17T02:46:25.481Z,45749.97
2023-01-17T02:48:52.258Z,45779.94
2023-01-17T02:51:44.642Z,45735.97
2023-01-17T02:54:20.477Z,45767.97
2023-01-17T02:57:22.034Z,45761.97
2023-01-17T03:00:15.216Z,45781.94
2023-01-17T03:02:57.334Z,45757.97
2023-01-17T03:06:00.665Z,45761.97
2023-01-17T03:08:28.376Z,45765.97
2023-01-17T03:10:55.292Z,45761.97
2023-01-17T03:13:21.896Z,45767.97
2023-01-17T03:15:48.553Z,45769.97
2023-01-17T03:18:17.040Z,45765.97
2023-01-17T03:20:43.565Z,45763.97
2023-01-17T03:23:10.037Z,45765.97
2023-01-17T03:25:36.523Z,45781.94
2023-01-17T03:28:03.247Z,45747.97
2023-01-17T03:30:29.773Z,45765.97
2023-01-17T03:32:56.422Z,45745.97
2023-01-17T03:35:23.027Z,45745.97
2023-01-17T03:37:49.488Z,45771.94
2023-01-17T03:40:16.251Z,45767.97
2023-01-17T03:42:43.823Z,45765.97
2023-01-17T03:45:11.111Z,45783.94
2023-01-17T03:47:37.556Z,45769.97
2023-01-17T03:50:04.683Z,45741.97
2023-01-17T03:52:31.179Z,45773.94
2023-01-17T03:54:57.733Z,45755.97
2023-01-17T03:57:24.305Z,45757.97
2023-01-17T03:59:50.797Z,45761.97
2023-01-17T04:02:17.736Z,45763.97
2023-01-17T04:04:44.455Z,45773.94
2023-01-17T04:07:10.886Z,45761.97
2023-01-17T04:09:37.415Z,45769.97
2023-01-17T04:12:03.983Z,45759.97
2023-01-17T04:14:30.476Z,45773.94
2023-01-17T04:16:57.245Z,45763.97
2023-01-17T04:19:23.790Z,45757.97
2023-01-17T04:21:50.247Z,45761.97
2023-01-17T04:24:18.034Z,45781.94
2023-01-17T04:26:44.943Z,45769.97
2023-01-17T04:29:11.443Z,45773.94
2023-01-17T04:31:37.903Z,45765.97
2023-01-17T04:34:04.346Z,45763.97
2023-01-17T04:36:30.819Z,45763.97
2023-01-17T04:38:57.271Z,45773.94
2023-01-17T04:41:23.796Z,45771.94
2023-01-17T04:43:50.246Z,45777.94
2023-01-17T04:46:16.748Z,45791.94
2023-01-17T04:48:43.309Z,45757.97
2023-01-17T04:51:09.747Z,45765.97
2023-01-17T04:53:36.271Z,45749.97
2023-01-17T04:56:03.237Z,45769.97
2023-01-17T04:58:29.845Z,45769.97
2023-01-17T05:01:00.640Z,45765.97
2023-01-17T05:03:27.054Z,45767.97
2023-01-17T05:05:53.483Z,45769.97
2023-01-17T05:08:19.969Z,45781.94
2023-01-17T05:10:46.973Z,45785.94
2023-01-17T05:13:14.261Z,45775.94
2023-01-17T05:15:41.236Z,45789.94
2023-01-17T05:18:12.598Z,45781.94
2023-01-17T05:20:39.448Z,45765.97
2023-01-17T05:23:05.896Z,45793.94
2023-01-17T05:25:33.226Z,45765.97
2023-01-17T05:28:00.443Z,45789.94
2023-01-17T05:30:28.786Z,45797.94
2023-01-17T05:32:56.867Z,45783.94
2023-01-17T05:35:29.125Z,45793.94
2023-01-17T05:37:56.232Z,45781.94
2023-01-17T05:40:26.922Z,45785.94
2023-01-17T05:42:54.932Z,45753.97
2023-01-17T05:45:24.109Z,45811.94
2023-01-17T05:47:52.886Z,45795.94
2023-01-17T05:50:25.574Z,45795.94
2023-01-17T05:53:00.747Z,45805.94
2023-01-17T05:55:28.401Z,45789.94
2023-01-17T05:57:55.906Z,45807.94
2023-01-17T06:00:23.213Z,45803.94
2023-01-17T06:02:49.994Z,45789.94
2023-01-17T06:05:16.968Z,45799.94
2023-01-17T06:07:45.187Z,45785.94
2023-01-17T06:10:14.632Z,45783.94
2023-01-17T06:12:45.438Z,45783.94
2023-01-17T06:15:13.786Z,45801.94
2023-01-17T06:17:40.308Z,45793.94
2023-01-17T06:20:09.195Z,45781.94
2023-01-17T06:22:35.796Z,45797.94
2023-01-17T06:25:02.714Z,45775.94
2023-01-17T06:27:29.370Z,45797.94
2023-01-17T06:29:55.800Z,45793.94
2023-01-17T06:32:22.223Z,45797.94
2023-01-17T06:34:49.063Z,45795.94
2023-01-17T06:37:15.559Z,45775.94
2023-01-17T06:39:42.218Z,45789.94
2023-01-17T06:42:08.640Z,45797.94
2023-01-17T06:44:35.155Z,45799.94
2023-01-17T06:47:01.640Z,45793.94
2023-01-17T06:49:28.188Z,45809.94
2023-01-17T06:51:54.673Z,45769.97
2023-01-17T06:54:21.075Z,45777.94
2023-01-17T06:56:47.507Z,45767.97
2023-01-17T06:59:13.907Z,45757.97
2023-01-17T07:01:41.418Z,45783.94
2023-01-17T07:04:08.174Z,45789.94
2023-01-17T07:06:36.498Z,45779.94
2023-01-17T07:09:04.166Z,45781.94
2023-01-17T07:11:31.176Z,45791.94
2023-01-17T07:13:57.771Z,45781.94
2023-01-17T07:16:24.349Z,45797.94
2023-01-17T07:18:51.797Z,45765.97
2023-01-17T07:21:18.562Z,45769.97
2023-01-17T07:23:45.012Z,45801.94
2023-01-17T07:26:11.468Z,45771.94
2023-01-17T07:28:37.942Z,45801.94
2023-01-17T07:31:08.419Z,45777.94
2023-01-17T07:33:35.362Z,45809.94
2023-01-17T07:36:09.282Z,45789.94
2023-01-17T07:38:35.888Z,45769.97
2023-01-17T07:41:02.345Z,45795.94
2023-01-17T07:43:29.423Z,45803.94
2023-01-17T07:45:56.007Z,45785.94
2023-01-17T07:48:23.971Z,45793.94
2023-01-17T07:50:58.237Z,45783.94
2023-01-17T07:53:28.181Z,45819.91
2023-01-17T07:55:55.241Z,45757.97
2023-01-17T07:58:21.940Z,45817.91
2023-01-17T08:00:48.512Z,45791.94
2023-01-17T08:03:17.644Z,45801.94
2023-01-17T08:05:54.627Z,45805.94
2023-01-17T08:08:21.134Z,45809.94
2023-01-17T08:10:47.560Z,45789.94
2023-01-17T08:13:14.007Z,45771.94
2023-01-17T08:15:40.546Z,45815.94
2023-01-17T08:18:06.976Z,45805.94
2023-01-17T08:20:33.460Z,45805.94
2023-01-17T08:22:59.870Z,45793.94
2023-01-17T08:25:27.399Z,45789.94
2023-01-17T08:27:57.829Z,45781.94
2023-01-17T08:30:25.286Z,45817.91
2023-01-17T08:32:51.785Z,45785.94
2023-01-17T08:35:19.928Z,45799.94
2023-01-17T08:37:47.739Z,45817.91
2023-01-17T08:40:17.546Z,45805.94
2023-01-17T08:42:44.193Z,45795.94
2023-01-17T08:45:11.794Z,45801.94
2023-01-17T08:47:38.528Z,45781.94
2023-01-17T08:50:06.769Z,45785.94
2023-01-17T08:52:33.825Z,45793.94
2023-01-17T08:55:00.306Z,45805.94
2023-01-17T08:57:26.897Z,45779.94
2023-01-17T08:59:53.512Z,45791.94
2023-01-17T09:02:20.986Z,45803.94
2023-01-17T09:04:49.002Z,45807.94
2023-01-17T09:07:17.303Z,45805.94
2023-01-17T09:09:43.805Z,45793.94
2023-01-17T09:12:10.546Z,45789.94
2023-01-17T09:14:37.667Z,45793.94
2023-01-17T09:17:06.726Z,45797.94
2023-01-17T09:19:33.265Z,45797.94
2023-01-17T09:21:59.688Z,45813.94
2023-01-17T09:24:26.131Z,45803.94
2023-01-17T09:26:52.644Z,45801.94
2023-01-17T09:29:19.083Z,45803.94
2023-01-17T09:31:47.295Z,45793.94
2023-01-17T09:34:15.336Z,45789.94
2023-01-17T09:36:42.408Z,45795.94
2023-01-17T09:39:10.886Z,45801.94
2023-01-17T09:41:47.420Z,45777.94
2023-01-17T09:44:27.973Z,45789.94
2023-01-17T09:47:00.010Z,45807.94
2023-01-17T09:49:32.568Z,45771.94
2023-01-17T09:51:59.826Z,45783.94
2023-01-17T09:54:37.726Z,45793.94
2023-01-17T09:57:25.530Z,45779.94
2023-01-17T10:00:34.320Z,45777.94
2023-01-17T10:03:06.692Z,45785.94
2023-01-17T10:05:50.036Z,45785.94
2023-01-17T10:08:26.614Z,45753.97
2023-01-17T10:11:23.536Z,45781.94
2023-01-17T10:14:28.133Z,45761.97
2023-01-17T10:17:28.674Z,45777.94
2023-01-17T10:20:17.011Z,45751.97
2023-01-17T10:23:22.077Z,45777.94
2023-01-17T10:25:50.186Z,45767.97
2023-01-17T10:28:31.895Z,45773.94
2023-01-17T10:31:03.666Z,45753.97
2023-01-17T10:33:40.329Z,45779.94
2023-01-17T10:36:24.350Z,45777.94
2023-01-17T10:38:54.325Z,45765.97
2023-01-17T10:41:45.066Z,45759.97
2023-01-17T10:44:20.558Z,45777.94
2023-01-17T10:47:16.006Z,45749.97
2023-01-17T10:49:46.285Z,45777.94
2023-01-17T10:52:16.737Z,45763.97
2023-01-17T10:54:52.576Z,45773.94
2023-01-17T10:57:25.238Z,45745.97
2023-01-17T10:59:52.717Z,45769.97
2023-01-17T11:02:35.763Z,45761.97
2023-01-17T11:05:10.958Z,45775.94
2023-01-17T11:07:39.983Z,45755.97
2023-01-17T11:10:27.123Z,45757.97
2023-01-17T11:12:53.664Z,45753.97
2023-01-17T11:15:25.798Z,45761.97
2023-01-17T11:18:02.049Z,45753.97
2023-01-17T11:20:42.943Z,45745.97
2023-01-17T11:23:29.821Z,45741.97
2023-01-17T11:25:59.795Z,45753.97
2023-01-17T11:28:31.568Z,45757.97
2023-01-17T11:31:07.547Z,45773.94
2023-01-17T11:33:49.094Z,45733.97
2023-01-17T11:36:24.627Z,45753.97
2023-01-17T11:38:57.175Z,45722.00
2023-01-17T11:41:25.116Z,45749.97
2023-01-17T11:43:56.205Z,45733.97
2023-01-17T11:46:23.952Z,45725.97
2023-01-17T11:48:56.348Z,45741.97
2023-01-17T11:51:25.290Z,45722.00
2023-01-17T11:53:54.060Z,45706.00
2023-01-17T11:56:29.169Z,45704.00
2023-01-17T11:59:17.432Z,45696.00
2023-01-17T12:02:01.095Z,45712.00
2023-01-17T12:04:36.394Z,45694.00
2023-01-17T12:07:05.991Z,45706.00
2023-01-17T12:09:32.381Z,45686.00
2023-01-17T12:12:32.935Z,45698.00
2023-01-17T12:15:21.073Z,45710.00
2023-01-17T12:18:06.141Z,45692.00
2023-01-17T12:20:51.638Z,45690.00
2023-01-17T12:23:50.749Z,45678.03
2023-01-17T12:26:34.839Z,45686.00
2023-01-17T12:29:04.311Z,45670.03
2023-01-17T12:31:41.459Z,45654.03
2023-01-17T12:34:50.810Z,45666.03
2023-01-17T12:37:31.658Z,45650.03
2023-01-17T12:40:02.403Z,45658.03
2023-01-17T12:42:37.478Z,45650.03
2023-01-17T12:45:03.924Z,45642.03
2023-01-17T12:47:34.369Z,45622.06
2023-01-17T12:50:06.098Z,45650.03
2023-01-17T12:52:42.467Z,45610.06
2023-01-17T12:55:17.550Z,45622.06
2023-01-17T12:57:52.060Z,45618.06
2023-01-17T13:00:25.374Z,45626.06
2023-01-17T13:03:14.281Z,45602.06
2023-01-17T13:05:45.928Z,45602.06
2023-01-17T13:08:43.608Z,45602.06
2023-01-17T13:11:28.528Z,45586.09
2023-01-17T13:13:57.464Z,45570.09
2023-01-17T13:16:44.983Z,45586.09
2023-01-17T13:19:23.718Z,45566.09
2023-01-17T13:21:50.549Z,45574.09
2023-01-17T13:24:22.610Z,45566.09
2023-01-17T13:26:55.445Z,45570.09
2023-01-17T13:29:52.208Z,45558.09
2023-01-17T13:32:39.730Z,45542.13
2023-01-17T13:35:18.363Z,45540.13
2023-01-17T13:37:50.972Z,45542.13
2023-01-17T13:40:35.153Z,45510.16
2023-01-17T13:43:06.096Z,45524.13
2023-01-17T13:45:35.774Z,45514.13
2023-01-17T13:48:18.020Z,45538.13
2023-01-17T13:50:44.393Z,45544.13
2023-01-17T13:53:31.328Z,45528.13
2023-01-17T13:56:19.482Z,45556.09
2023-01-17T13:58:54.348Z,45550.13
2023-01-17T14:01:24.186Z,45564.09
2023-01-17T14:03:53.719Z,45582.09
2023-01-17T14:06:40.626Z,45594.09
2023-01-17T14:09:22.164Z,45594.09
2023-01-17T14:12:05.423Z,45602.06
2023-01-17T14:14:42.825Z,45612.06
2023-01-17T14:17:27.959Z,45626.06
2023-01-17T14:19:57.692Z,45650.03
2023-01-17T14:22:27.226Z,45630.06
2023-01-17T14:25:15.149Z,45626.06
2023-01-17T14:27:55.445Z,45630.06
2023-01-17T14:30:33.858Z,45634.06
2023-01-17T14:33:04.425Z,45626.06
2023-01-17T14:35:36.827Z,45650.03
2023-01-17T14:38:12.377Z,45650.03
2023-01-17T14:40:39.035Z,45668.03
2023-01-17T14:43:11.708Z,45646.03
2023-01-17T14:45:39.206Z,45650.03
2023-01-17T14:48:14.626Z,45642.03
2023-01-17T14:50:43.847Z,45646.03
2023-01-17T14:53:15.960Z,45654.03
2023-01-17T14:55:48.914Z,45676.03
2023-01-17T14:58:20.673Z,45636.06
2023-01-17T15:00:50.071Z,45670.03
2023-01-17T15:03:17.590Z,45674.03
2023-01-17T15:05:49.807Z,45670.03
2023-01-17T15:08:34.866Z,45650.03
2023-01-17T15:11:18.174Z,45662.03
2023-01-17T15:13:49.350Z,45702.00
2023-01-17T15:16:23.951Z,45666.03
2023-01-17T15:18:51.942Z,45682.00
2023-01-17T15:21:22.012Z,45694.00
2023-01-17T15:24:03.485Z,45668.03
2023-01-17T15:26:34.278Z,45668.03
2023-01-17T15:29:22.532Z,45676.03
2023-01-17T15:31:53.913Z,45690.00
2023-01-17T15:34:36.513Z,45690.00
2023-01-17T15:37:21.278Z,45666.03
2023-01-17T15:39:48.080Z,45686.00
2023-01-17T15:42:28.426Z,45702.00
2023-01-17T15:44:58.556Z,45710.00
2023-01-17T15:47:35.430Z,45690.00
2023-01-17T15:50:27.713Z,45698.00
2023-01-17T15:53:00.777Z,45700.00
2023-01-17T15:55:35.741Z,45714.00
2023-01-17T15:58:03.450Z,45706.00
2023-01-17T16:00:37.194Z,45722.00
2023-01-17T16:03:26.167Z,45702.00
2023-01-17T16:05:56.752Z,45722.00
2023-01-17T16:08:26.611Z,45714.00
2023-01-17T16:11:01.889Z,45722.00
2023-01-17T16:13:31.172Z,45702.00
2023-01-17T16:16:21.309Z,45743.97
2023-01-17T16:18:49.021Z,45720.00
2023-01-17T16:21:18.715Z,45724.00
2023-01-17T16:23:46.763Z,45733.97
2023-01-17T16:26:13.496Z,45716.00
2023-01-17T16:28:39.947Z,45759.97
2023-01-17T16:31:06.464Z,45741.97
2023-01-17T16:33:32.923Z,45725.97
2023-01-17T16:35:59.415Z,45733.97
2023-01-17T16:38:25.962Z,45737.97
2023-01-17T16:40:53.926Z,45757.97
2023-01-17T16:43:20.497Z,45759.97
2023-01-17T16:45:50.315Z,45761.97
2023-01-17T16:48:19.318Z,45765.97
2023-01-17T16:50:50.490Z,45755.97
2023-01-17T16:53:22.569Z,45757.97
2023-01-17T16:55:53.097Z,45745.97
2023-01-17T16:58:20.305Z,45773.94
2023-01-17T17:00:47.344Z,45765.97
2023-01-17T17:03:18.707Z,45781.94
2023-01-17T17:05:53.809Z,45757.97
2023-01-17T17:08:20.268Z,45797.94
2023-01-17T17:10:47.108Z,45793.94
2023-01-17T17:13:13.519Z,45805.94
2023-01-17T17:15:43.916Z,45769.97
2023-01-17T17:18:15.230Z,45781.94
2023-01-17T17:20:42.326Z,45755.97
2023-01-17T17:23:10.258Z,45789.94
2023-01-17T17:25:37.625Z,45769.97
2023-01-17T17:28:05.380Z,45785.94
2023-01-17T17:30:33.265Z,45801.94
2023-01-17T17:32:59.728Z,45823.91
2023-01-17T17:35:26.702Z,45793.94
2023-01-17T17:37:53.484Z,45797.94
2023-01-17T17:40:20.191Z,45801.94
2023-01-17T17:42:46.625Z,45801.94
2023-01-17T17:45:13.058Z,45793.94
2023-01-17T17:47:39.461Z,45795.94
2023-01-17T17:50:06.631Z,45781.94
2023-01-17T17:52:33.054Z,45795.94
2023-01-17T17:54:59.595Z,45789.94
2023-01-17T17:57:26.116Z,45813.94
2023-01-17T17:59:55.869Z,45797.94
2023-01-17T18:02:22.420Z,45825.91
2023-01-17T18:04:48.877Z,45805.94
2023-01-17T18:07:15.394Z,45803.94
2023-01-17T18:09:41.829Z,45801.94
2023-01-17T18:12:08.348Z,45803.94
2023-01-17T18:14:34.809Z,45793.94
2023-01-17T18:17:01.274Z,45821.91
2023-01-17T18:19:27.754Z,45813.94
2023-01-17T18:21:54.496Z,45801.94
2023-01-17T18:24:23.281Z,45801.94
2023-01-17T18:26:52.588Z,45809.94
2023-01-17T18:29:20.762Z,45833.91
2023-01-17T18:31:49.982Z,45825.91
2023-01-17T18:34:23.602Z,45811.94
2023-01-17T18:36:51.614Z,45827.91
2023-01-17T18:39:24.457Z,45837.91
2023-01-17T18:41:51.425Z,45807.94
2023-01-17T18:44:21.620Z,45825.91
2023-01-17T18:46:48.913Z,45821.91
2023-01-17T18:49:18.396Z,45829.91
2023-01-17T18:51:48.780Z,45811.94
2023-01-17T18:54:15.216Z,45843.91
2023-01-17T18:56:42.429Z,45821.91
2023-01-17T18:59:12.416Z,45821.91
2023-01-17T19:01:42.180Z,45827.91
2023-01-17T19:04:09.149Z,45813.94
2023-01-17T19:06:38.693Z,45829.91
2023-01-17T19:09:07.327Z,45825.91
2023-01-17T19:11:35.293Z,45825.91
2023-01-17T19:14:01.835Z,45819.91
2023-01-17T19:16:34.927Z,45823.91
2023-01-17T19:19:05.464Z,45831.91
2023-01-17T19:21:32.423Z,45817.91
2023-01-17T19:23:59.415Z,45841.91
2023-01-17T19:26:27.248Z,45825.91
2023-01-17T19:28:56.241Z,45837.91
2023-01-17T19:31:28.285Z,45825.91
2023-01-17T19:33:57.409Z,45841.91
2023-01-17T19:36:27.829Z,45823.91
2023-01-17T19:39:03.957Z,45825.91
2023-01-17T19:41:32.820Z,45817.91
2023-01-17T19:44:01.449Z,45827.91
2023-01-17T19:46:28.496Z,45835.91
2023-01-17T19:48:57.049Z,45845.91
2023-01-17T19:51:24.639Z,45839.91
2023-01-17T19:53:51.399Z,45815.94
2023-01-17T19:56:20.649Z,45837.91
2023-01-17T19:58:47.801Z,45845.91
2023-01-17T20:01:19.706Z,45857.91
2023-01-17T20:03:47.094Z,45857.91
2023-01-17T20:06:16.850Z,45857.91
2023-01-17T20:08:43.633Z,45859.91
2023-01-17T20:11:17.446Z,45869.88
2023-01-17T20:13:45.597Z,45829.91
2023-01-17T20:16:15.058Z,45859.91
2023-01-17T20:18:42.474Z,45829.91
2023-01-17T20:21:15.248Z,45861.91
2023-01-17T20:23:43.305Z,45831.91
2023-01-17T20:26:11.559Z,45845.91
2023-01-17T20:28:40.833Z,45845.91
2023-01-17T20:31:15.455Z,45847.91
2023-01-17T20:33:43.663Z,45835.91
2023-01-17T20:36:14.746Z,45857.91
2023-01-17T20:38:46.152Z,45841.91
2023-01-17T20:41:25.816Z,45857.91
2023-01-17T20:43:54.336Z,45859.91
2023-01-17T20:46:22.999Z,45825.91
2023-01-17T20:48:57.886Z,45855.91
2023-01-17T20:51:26.620Z,45849.91
2023-01-17T20:53:59.103Z,45849.91
2023-01-17T20:56:26.694Z,45841.91
2023-01-17T20:58:54.473Z,45861.91
2023-01-17T21:01:24.155Z,45847.91
2023-01-17T21:03:53.038Z,45849.91
2023-01-17T21:06:21.635Z,45863.91
2023-01-17T21:08:48.663Z,45847.91
2023-01-17T21:11:18.593Z,45845.91
2023-01-17T21:13:45.521Z,45861.91
2023-01-17T21:16:14.398Z,45855.91
2023-01-17T21:18:41.044Z,45853.91
2023-01-17T21:21:12.689Z,45863.91
2023-01-17T21:23:40.627Z,45837.91
2023-01-17T21:26:10.727Z,45857.91
2023-01-17T21:28:38.982Z,45877.88
2023-01-17T21:31:19.369Z,45865.88
2023-01-17T21:33:47.447Z,45869.88
2023-01-17T21:36:14.003Z,45861.91
2023-01-17T21:38:40.506Z,45871.88
2023-01-17T21:41:06.950Z,45859.91
2023-01-17T21:43:33.578Z,45853.91
2023-01-17T21:46:05.488Z,45853.91
2023-01-17T21:48:32.046Z,45841.91
2023-01-17T21:51:06.311Z,45879.88
2023-01-17T21:53:35.497Z,45851.91
2023-01-17T21:56:22.807Z,45863.91
2023-01-17T21:58:53.929Z,45849.91
2023-01-17T22:01:22.770Z,45873.88
2023-01-17T22:04:02.610Z,45877.88
2023-01-17T22:06:31.563Z,45885.88
2023-01-17T22:08:59.161Z,45867.88
2023-01-17T22:11:26.979Z,45851.91
2023-01-17T22:13:53.744Z,45867.88
2023-01-17T22:16:23.431Z,45839.91
2023-01-17T22:18:50.777Z,45877.88
2023-01-17T22:21:20.795Z,45869.88
2023-01-17T22:23:56.291Z,45861.91
2023-01-17T22:26:25.433Z,45853.91
2023-01-17T22:28:52.491Z,45857.91
2023-01-17T22:31:22.795Z,45865.88
2023-01-17T22:34:07.176Z,45871.88
2023-01-17T22:36:34.508Z,45877.88
2023-01-17T22:39:01.532Z,45873.88
2023-01-17T22:41:33.685Z,45845.91
2023-01-17T22:44:05.404Z,45877.88
2023-01-17T22:46:33.814Z,45879.88
2023-01-17T22:49:00.496Z,45883.88
2023-01-17T22:51:28.503Z,45897.88
2023-01-17T22:54:00.044Z,45885.88
2023-01-17T22:56:29.209Z,45849.91
2023-01-17T22:58:55.824Z,45877.88
2023-01-17T23:01:27.893Z,45861.91
2023-01-17T23:03:57.106Z,45877.88
2023-01-17T23:06:30.233Z,45881.88
2023-01-17T23:08:59.341Z,45875.88
2023-01-17T23:11:39.139Z,45861.91
2023-01-17T23:14:12.433Z,45893.88
2023-01-17T23:17:15.259Z,45873.88
2023-01-17T23:19:47.136Z,45881.88
2023-01-17T23:22:17.090Z,45877.88
2023-01-17T23:24:53.430Z,45893.88
2023-01-17T23:27:47.695Z,45889.88
2023-01-17T23:30:17.539Z,45883.88
2023-01-17T23:32:46.496Z,45867.88
2023-01-17T23:35:13.943Z,45869.88
2023-01-17T23:37:59.344Z,45857.91
2023-01-17T23:40:25.926Z,45853.91
2023-01-17T23:43:11.045Z,45857.91
2023-01-17T23:45:39.047Z,45865.88
2023-01-17T23:48:09.482Z,45885.88
2023-01-17T23:50:44.135Z,45869.88
2023-01-17T23:53:15.354Z,45861.91
2023-01-17T23:55:43.649Z,45865.88
2023-01-17T23:58:11.279Z,45869.88
